sensor_id;sensor_type;location;lat;lon;timestamp;P1;durP1;ratioP1;P2;durP2;ratioP2
76107;SDS011;64834;52.516;10.528;2022-12-07T00:01:39;23.92;;;12.05;;
76107;SDS011;64834;52.516;10.528;2022-12-07T00:04:07;23.52;;;11.85;;
76107;SDS011;64834;52.516;10.528;2022-12-07T00:06:39;25.88;;;11.77;;
76107;SDS011;64834;52.516;10.528;2022-12-07T00:09:07;26.92;;;12.93;;
76107;SDS011;64834;52.516;10.528;2022-12-07T00:11:34;28.83;;;12.68;;
76107;SDS011;64834;52.516;10.528;2022-12-07T00:14:00;27.88;;;12.70;;
76107;SDS011;64834;52.516;10.528;2022-12-07T00:18:54;24.77;;;12.50;;
76107;SDS011;64834;52.516;10.528;2022-12-07T00:21:22;26.15;;;12.50;;
76107;SDS011;64834;52.516;10.528;2022-12-07T00:23:49;29.67;;;13.98;;
76107;SDS011;64834;52.516;10.528;2022-12-07T00:26:27;28.88;;;12.38;;
76107;SDS011;64834;52.516;10.528;2022-12-07T00:28:54;27.40;;;13.43;;
76107;SDS011;64834;52.516;10.528;2022-12-07T00:31:23;27.10;;;13.93;;
76107;SDS011;64834;52.516;10.528;2022-12-07T00:36:17;24.83;;;12.20;;
76107;SDS011;64834;52.516;10.528;2022-12-07T00:38:45;29.80;;;12.73;;
76107;SDS011;64834;52.516;10.528;2022-12-07T00:41:12;33.33;;;15.10;;
76107;SDS011;64834;52.516;10.528;2022-12-07T00:43:39;31.40;;;14.05;;
76107;SDS011;64834;52.516;10.528;2022-12-07T00:46:05;31.58;;;14.15;;
76107;SDS011;64834;52.516;10.528;2022-12-07T00:48:31;29.50;;;12.15;;
76107;SDS011;64834;52.516;10.528;2022-12-07T00:50:56;32.10;;;13.20;;
76107;SDS011;64834;52.516;10.528;2022-12-07T00:53:22;32.40;;;14.50;;
76107;SDS011;64834;52.516;10.528;2022-12-07T00:55:47;30.00;;;13.52;;
76107;SDS011;64834;52.516;10.528;2022-12-07T00:58:13;36.50;;;14.95;;
76107;SDS011;64834;52.516;10.528;2022-12-07T01:00:39;33.50;;;14.52;;
76107;SDS011;64834;52.516;10.528;2022-12-07T01:03:06;31.30;;;13.80;;
76107;SDS011;64834;52.516;10.528;2022-12-07T01:05:33;39.20;;;16.40;;
76107;SDS011;64834;52.516;10.528;2022-12-07T01:07:58;44.58;;;16.42;;
76107;SDS011;64834;52.516;10.528;2022-12-07T01:10:24;38.42;;;15.35;;
76107;SDS011;64834;52.516;10.528;2022-12-07T01:12:49;41.35;;;15.93;;
76107;SDS011;64834;52.516;10.528;2022-12-07T01:15:14;40.60;;;16.05;;
76107;SDS011;64834;52.516;10.528;2022-12-07T01:17:40;35.50;;;15.35;;
76107;SDS011;64834;52.516;10.528;2022-12-07T01:20:05;39.45;;;15.68;;
76107;SDS011;64834;52.516;10.528;2022-12-07T01:22:31;37.45;;;15.68;;
76107;SDS011;64834;52.516;10.528;2022-12-07T01:25:01;37.10;;;15.23;;
76107;SDS011;64834;52.516;10.528;2022-12-07T01:27:26;38.55;;;17.00;;
76107;SDS011;64834;52.516;10.528;2022-12-07T01:29:51;35.35;;;15.85;;
76107;SDS011;64834;52.516;10.528;2022-12-07T01:32:17;46.17;;;17.38;;
76107;SDS011;64834;52.516;10.528;2022-12-07T01:34:42;40.80;;;15.98;;
76107;SDS011;64834;52.516;10.528;2022-12-07T01:37:07;44.13;;;17.48;;
76107;SDS011;64834;52.516;10.528;2022-12-07T01:39:33;39.53;;;16.25;;
76107;SDS011;64834;52.516;10.528;2022-12-07T01:41:58;42.00;;;16.98;;
76107;SDS011;64834;52.516;10.528;2022-12-07T01:47:02;44.63;;;17.25;;
76107;SDS011;64834;52.516;10.528;2022-12-07T01:49:39;49.13;;;19.00;;
76107;SDS011;64834;52.516;10.528;2022-12-07T01:52:22;43.13;;;18.55;;
76107;SDS011;64834;52.516;10.528;2022-12-07T01:54:57;42.20;;;15.95;;
76107;SDS011;64834;52.516;10.528;2022-12-07T01:57:25;32.03;;;12.68;;
76107;SDS011;64834;52.516;10.528;2022-12-07T01:59:51;35.90;;;14.18;;
76107;SDS011;64834;52.516;10.528;2022-12-07T02:02:19;40.05;;;15.90;;
76107;SDS011;64834;52.516;10.528;2022-12-07T02:04:51;44.42;;;16.98;;
76107;SDS011;64834;52.516;10.528;2022-12-07T02:07:17;42.53;;;14.63;;
76107;SDS011;64834;52.516;10.528;2022-12-07T02:09:44;41.75;;;17.45;;
76107;SDS011;64834;52.516;10.528;2022-12-07T02:12:09;50.03;;;18.35;;
76107;SDS011;64834;52.516;10.528;2022-12-07T02:14:34;45.88;;;17.98;;
76107;SDS011;64834;52.516;10.528;2022-12-07T02:17:07;45.58;;;16.65;;
76107;SDS011;64834;52.516;10.528;2022-12-07T02:28:33;32.35;;;13.20;;
76107;SDS011;64834;52.516;10.528;2022-12-07T02:31:01;50.00;;;19.35;;
76107;SDS011;64834;52.516;10.528;2022-12-07T02:33:43;30.83;;;13.68;;
76107;SDS011;64834;52.516;10.528;2022-12-07T02:36:19;26.85;;;12.05;;
76107;SDS011;64834;52.516;10.528;2022-12-07T02:39:06;21.75;;;9.68;;
76107;SDS011;64834;52.516;10.528;2022-12-07T02:41:43;41.40;;;14.98;;
76107;SDS011;64834;52.516;10.528;2022-12-07T02:44:14;39.85;;;15.95;;
76107;SDS011;64834;52.516;10.528;2022-12-07T02:46:46;38.10;;;14.48;;
76107;SDS011;64834;52.516;10.528;2022-12-07T02:49:18;35.50;;;14.18;;
76107;SDS011;64834;52.516;10.528;2022-12-07T02:51:45;18.27;;;10.07;;
76107;SDS011;64834;52.516;10.528;2022-12-07T02:54:12;25.17;;;12.43;;
76107;SDS011;64834;52.516;10.528;2022-12-07T03:02:17;20.10;;;10.60;;
76107;SDS011;64834;52.516;10.528;2022-12-07T03:15:31;14.93;;;9.23;;
76107;SDS011;64834;52.516;10.528;2022-12-07T03:18:00;23.98;;;11.68;;
76107;SDS011;64834;52.516;10.528;2022-12-07T03:20:28;18.23;;;8.55;;
76107;SDS011;64834;52.516;10.528;2022-12-07T03:22:54;20.38;;;9.52;;
76107;SDS011;64834;52.516;10.528;2022-12-07T03:25:22;14.23;;;7.47;;
76107;SDS011;64834;52.516;10.528;2022-12-07T03:27:53;16.10;;;7.72;;
76107;SDS011;64834;52.516;10.528;2022-12-07T03:30:22;11.55;;;6.40;;
76107;SDS011;64834;52.516;10.528;2022-12-07T03:35:22;14.82;;;7.50;;
76107;SDS011;64834;52.516;10.528;2022-12-07T03:38:15;16.23;;;7.38;;
76107;SDS011;64834;52.516;10.528;2022-12-07T03:41:22;16.88;;;8.15;;
76107;SDS011;64834;52.516;10.528;2022-12-07T03:43:50;18.50;;;9.10;;
76107;SDS011;64834;52.516;10.528;2022-12-07T03:49:08;12.55;;;6.82;;
76107;SDS011;64834;52.516;10.528;2022-12-07T03:54:23;13.85;;;6.80;;
76107;SDS011;64834;52.516;10.528;2022-12-07T03:56:53;13.43;;;6.38;;
76107;SDS011;64834;52.516;10.528;2022-12-07T03:59:20;23.85;;;7.28;;
76107;SDS011;64834;52.516;10.528;2022-12-07T04:01:51;16.10;;;8.82;;
76107;SDS011;64834;52.516;10.528;2022-12-07T04:04:18;15.70;;;9.35;;
76107;SDS011;64834;52.516;10.528;2022-12-07T04:06:44;13.27;;;5.82;;
76107;SDS011;64834;52.516;10.528;2022-12-07T04:09:09;9.18;;;5.00;;
76107;SDS011;64834;52.516;10.528;2022-12-07T04:11:34;16.13;;;6.45;;
76107;SDS011;64834;52.516;10.528;2022-12-07T04:13:59;11.10;;;6.20;;
76107;SDS011;64834;52.516;10.528;2022-12-07T04:16:43;15.30;;;5.65;;
76107;SDS011;64834;52.516;10.528;2022-12-07T04:19:09;8.63;;;4.55;;
76107;SDS011;64834;52.516;10.528;2022-12-07T04:21:34;9.95;;;6.30;;
76107;SDS011;64834;52.516;10.528;2022-12-07T04:23:59;13.52;;;7.13;;
76107;SDS011;64834;52.516;10.528;2022-12-07T04:26:25;12.63;;;5.38;;
76107;SDS011;64834;52.516;10.528;2022-12-07T04:28:50;14.45;;;7.80;;
76107;SDS011;64834;52.516;10.528;2022-12-07T04:31:15;9.93;;;5.22;;
76107;SDS011;64834;52.516;10.528;2022-12-07T04:33:41;20.05;;;7.13;;
76107;SDS011;64834;52.516;10.528;2022-12-07T04:36:06;15.90;;;6.80;;
76107;SDS011;64834;52.516;10.528;2022-12-07T04:38:32;14.90;;;8.25;;
76107;SDS011;64834;52.516;10.528;2022-12-07T04:40:57;8.70;;;5.40;;
76107;SDS011;64834;52.516;10.528;2022-12-07T04:43:22;18.20;;;9.25;;
76107;SDS011;64834;52.516;10.528;2022-12-07T04:45:48;14.55;;;7.70;;
76107;SDS011;64834;52.516;10.528;2022-12-07T04:48:14;12.93;;;5.80;;
76107;SDS011;64834;52.516;10.528;2022-12-07T04:50:39;10.63;;;6.65;;
76107;SDS011;64834;52.516;10.528;2022-12-07T04:53:04;11.32;;;6.55;;
76107;SDS011;64834;52.516;10.528;2022-12-07T04:55:30;7.03;;;4.55;;
76107;SDS011;64834;52.516;10.528;2022-12-07T04:57:55;10.60;;;5.68;;
76107;SDS011;64834;52.516;10.528;2022-12-07T05:00:20;15.48;;;8.25;;
76107;SDS011;64834;52.516;10.528;2022-12-07T05:02:46;12.82;;;6.35;;
76107;SDS011;64834;52.516;10.528;2022-12-07T05:05:11;15.90;;;7.88;;
76107;SDS011;64834;52.516;10.528;2022-12-07T05:07:36;10.48;;;5.40;;
76107;SDS011;64834;52.516;10.528;2022-12-07T05:10:02;12.13;;;7.65;;
76107;SDS011;64834;52.516;10.528;2022-12-07T05:12:27;7.55;;;3.83;;
76107;SDS011;64834;52.516;10.528;2022-12-07T05:14:53;8.88;;;4.88;;
76107;SDS011;64834;52.516;10.528;2022-12-07T05:17:18;9.73;;;5.10;;
76107;SDS011;64834;52.516;10.528;2022-12-07T05:19:43;15.05;;;6.03;;
76107;SDS011;64834;52.516;10.528;2022-12-07T05:22:09;8.75;;;5.18;;
76107;SDS011;64834;52.516;10.528;2022-12-07T05:24:34;11.90;;;5.20;;
76107;SDS011;64834;52.516;10.528;2022-12-07T05:26:59;9.93;;;4.57;;
76107;SDS011;64834;52.516;10.528;2022-12-07T05:29:25;8.25;;;4.85;;
76107;SDS011;64834;52.516;10.528;2022-12-07T05:31:50;11.52;;;5.00;;
76107;SDS011;64834;52.516;10.528;2022-12-07T05:34:15;14.98;;;8.77;;
76107;SDS011;64834;52.516;10.528;2022-12-07T05:36:41;12.50;;;5.93;;
76107;SDS011;64834;52.516;10.528;2022-12-07T05:39:07;9.50;;;5.13;;
76107;SDS011;64834;52.516;10.528;2022-12-07T05:41:33;9.93;;;5.40;;
76107;SDS011;64834;52.516;10.528;2022-12-07T05:44:17;16.42;;;8.90;;
76107;SDS011;64834;52.516;10.528;2022-12-07T05:46:43;9.98;;;5.32;;
76107;SDS011;64834;52.516;10.528;2022-12-07T05:49:08;12.88;;;6.60;;
76107;SDS011;64834;52.516;10.528;2022-12-07T05:51:33;11.60;;;6.63;;
76107;SDS011;64834;52.516;10.528;2022-12-07T05:53:59;6.85;;;3.58;;
76107;SDS011;64834;52.516;10.528;2022-12-07T05:56:24;11.35;;;4.38;;
76107;SDS011;64834;52.516;10.528;2022-12-07T05:58:49;13.38;;;5.85;;
76107;SDS011;64834;52.516;10.528;2022-12-07T06:01:33;8.05;;;5.45;;
76107;SDS011;64834;52.516;10.528;2022-12-07T06:03:58;10.73;;;5.18;;
76107;SDS011;64834;52.516;10.528;2022-12-07T06:06:24;11.82;;;6.05;;
76107;SDS011;64834;52.516;10.528;2022-12-07T06:08:49;8.02;;;4.78;;
76107;SDS011;64834;52.516;10.528;2022-12-07T06:11:15;7.95;;;4.75;;
76107;SDS011;64834;52.516;10.528;2022-12-07T06:13:58;11.52;;;3.85;;
76107;SDS011;64834;52.516;10.528;2022-12-07T06:16:24;12.15;;;4.75;;
76107;SDS011;64834;52.516;10.528;2022-12-07T06:18:49;7.93;;;3.92;;
76107;SDS011;64834;52.516;10.528;2022-12-07T06:21:14;14.15;;;5.63;;
76107;SDS011;64834;52.516;10.528;2022-12-07T06:23:40;11.38;;;5.25;;
76107;SDS011;64834;52.516;10.528;2022-12-07T06:26:05;8.38;;;4.18;;
76107;SDS011;64834;52.516;10.528;2022-12-07T06:28:30;5.32;;;2.58;;
76107;SDS011;64834;52.516;10.528;2022-12-07T06:30:56;6.53;;;4.18;;
76107;SDS011;64834;52.516;10.528;2022-12-07T06:33:23;5.82;;;3.08;;
76107;SDS011;64834;52.516;10.528;2022-12-07T06:35:49;10.85;;;4.57;;
76107;SDS011;64834;52.516;10.528;2022-12-07T06:38:14;10.95;;;5.90;;
76107;SDS011;64834;52.516;10.528;2022-12-07T06:40:40;10.38;;;5.25;;
76107;SDS011;64834;52.516;10.528;2022-12-07T06:43:06;5.18;;;3.47;;
76107;SDS011;64834;52.516;10.528;2022-12-07T06:45:31;8.75;;;3.92;;
76107;SDS011;64834;52.516;10.528;2022-12-07T06:47:56;11.02;;;4.65;;
76107;SDS011;64834;52.516;10.528;2022-12-07T06:50:21;10.30;;;5.20;;
76107;SDS011;64834;52.516;10.528;2022-12-07T06:52:47;12.20;;;4.82;;
76107;SDS011;64834;52.516;10.528;2022-12-07T06:55:12;8.40;;;4.53;;
76107;SDS011;64834;52.516;10.528;2022-12-07T06:57:37;9.35;;;4.68;;
76107;SDS011;64834;52.516;10.528;2022-12-07T07:00:03;7.32;;;4.03;;
76107;SDS011;64834;52.516;10.528;2022-12-07T07:02:29;7.57;;;3.70;;
76107;SDS011;64834;52.516;10.528;2022-12-07T07:04:54;11.05;;;5.18;;
76107;SDS011;64834;52.516;10.528;2022-12-07T07:07:19;6.13;;;2.42;;
76107;SDS011;64834;52.516;10.528;2022-12-07T07:09:45;10.20;;;4.47;;
76107;SDS011;64834;52.516;10.528;2022-12-07T07:12:10;8.35;;;3.88;;
76107;SDS011;64834;52.516;10.528;2022-12-07T07:14:35;5.78;;;3.72;;
76107;SDS011;64834;52.516;10.528;2022-12-07T07:17:01;4.85;;;2.70;;
76107;SDS011;64834;52.516;10.528;2022-12-07T07:19:26;7.32;;;2.92;;
76107;SDS011;64834;52.516;10.528;2022-12-07T07:21:52;4.18;;;2.03;;
76107;SDS011;64834;52.516;10.528;2022-12-07T07:24:17;4.18;;;2.17;;
76107;SDS011;64834;52.516;10.528;2022-12-07T07:26:42;2.67;;;1.13;;
76107;SDS011;64834;52.516;10.528;2022-12-07T07:29:08;6.22;;;2.80;;
76107;SDS011;64834;52.516;10.528;2022-12-07T07:31:33;5.25;;;2.70;;
76107;SDS011;64834;52.516;10.528;2022-12-07T07:34:00;5.95;;;3.85;;
76107;SDS011;64834;52.516;10.528;2022-12-07T07:36:26;12.32;;;2.50;;
76107;SDS011;64834;52.516;10.528;2022-12-07T07:38:51;5.78;;;3.30;;
76107;SDS011;64834;52.516;10.528;2022-12-07T07:41:16;5.35;;;2.80;;
76107;SDS011;64834;52.516;10.528;2022-12-07T07:43:42;11.45;;;4.72;;
76107;SDS011;64834;52.516;10.528;2022-12-07T07:46:07;8.18;;;3.10;;
76107;SDS011;64834;52.516;10.528;2022-12-07T07:48:32;9.35;;;5.63;;
76107;SDS011;64834;52.516;10.528;2022-12-07T07:50:57;7.78;;;4.28;;
76107;SDS011;64834;52.516;10.528;2022-12-07T07:53:23;8.70;;;3.90;;
76107;SDS011;64834;52.516;10.528;2022-12-07T07:55:52;7.05;;;3.20;;
76107;SDS011;64834;52.516;10.528;2022-12-07T07:58:18;8.13;;;3.75;;
76107;SDS011;64834;52.516;10.528;2022-12-07T08:00:44;6.53;;;3.35;;
76107;SDS011;64834;52.516;10.528;2022-12-07T08:03:09;5.93;;;3.20;;
76107;SDS011;64834;52.516;10.528;2022-12-07T08:05:36;8.77;;;4.18;;
76107;SDS011;64834;52.516;10.528;2022-12-07T08:08:02;17.15;;;4.53;;
76107;SDS011;64834;52.516;10.528;2022-12-07T08:10:27;6.22;;;3.55;;
76107;SDS011;64834;52.516;10.528;2022-12-07T08:12:52;8.02;;;4.45;;
76107;SDS011;64834;52.516;10.528;2022-12-07T08:15:36;7.40;;;4.03;;
76107;SDS011;64834;52.516;10.528;2022-12-07T08:18:03;8.02;;;3.90;;
76107;SDS011;64834;52.516;10.528;2022-12-07T08:20:32;7.38;;;3.45;;
76107;SDS011;64834;52.516;10.528;2022-12-07T08:22:59;8.15;;;4.70;;
76107;SDS011;64834;52.516;10.528;2022-12-07T08:25:25;6.82;;;4.22;;
76107;SDS011;64834;52.516;10.528;2022-12-07T08:27:50;8.13;;;4.00;;
76107;SDS011;64834;52.516;10.528;2022-12-07T08:30:16;5.80;;;2.80;;
76107;SDS011;64834;52.516;10.528;2022-12-07T08:32:43;9.88;;;4.35;;
76107;SDS011;64834;52.516;10.528;2022-12-07T08:35:09;6.45;;;3.20;;
76107;SDS011;64834;52.516;10.528;2022-12-07T08:37:35;7.07;;;3.75;;
76107;SDS011;64834;52.516;10.528;2022-12-07T08:40:00;6.07;;;3.33;;
76107;SDS011;64834;52.516;10.528;2022-12-07T08:42:26;7.25;;;4.05;;
76107;SDS011;64834;52.516;10.528;2022-12-07T08:44:54;14.32;;;5.40;;
76107;SDS011;64834;52.516;10.528;2022-12-07T08:47:23;9.30;;;4.35;;
76107;SDS011;64834;52.516;10.528;2022-12-07T08:49:50;5.75;;;3.33;;
76107;SDS011;64834;52.516;10.528;2022-12-07T08:52:17;7.40;;;3.55;;
76107;SDS011;64834;52.516;10.528;2022-12-07T08:54:42;6.82;;;3.00;;
76107;SDS011;64834;52.516;10.528;2022-12-07T08:57:08;8.88;;;4.07;;
76107;SDS011;64834;52.516;10.528;2022-12-07T08:59:35;7.18;;;3.28;;
76107;SDS011;64834;52.516;10.528;2022-12-07T09:02:01;5.18;;;3.42;;
76107;SDS011;64834;52.516;10.528;2022-12-07T09:04:27;9.27;;;4.28;;
76107;SDS011;64834;52.516;10.528;2022-12-07T09:06:53;5.55;;;3.08;;
76107;SDS011;64834;52.516;10.528;2022-12-07T09:09:20;5.40;;;3.45;;
76107;SDS011;64834;52.516;10.528;2022-12-07T09:11:45;4.05;;;2.38;;
76107;SDS011;64834;52.516;10.528;2022-12-07T09:14:10;8.52;;;4.28;;
76107;SDS011;64834;52.516;10.528;2022-12-07T09:16:37;5.25;;;2.63;;
76107;SDS011;64834;52.516;10.528;2022-12-07T09:19:03;5.45;;;3.75;;
76107;SDS011;64834;52.516;10.528;2022-12-07T09:21:29;5.47;;;2.92;;
76107;SDS011;64834;52.516;10.528;2022-12-07T09:23:54;7.30;;;3.97;;
76107;SDS011;64834;52.516;10.528;2022-12-07T09:26:19;11.00;;;3.70;;
76107;SDS011;64834;52.516;10.528;2022-12-07T09:28:45;6.63;;;3.65;;
76107;SDS011;64834;52.516;10.528;2022-12-07T09:31:10;5.88;;;3.50;;
76107;SDS011;64834;52.516;10.528;2022-12-07T09:33:35;5.53;;;2.42;;
76107;SDS011;64834;52.516;10.528;2022-12-07T09:36:01;4.88;;;2.42;;
76107;SDS011;64834;52.516;10.528;2022-12-07T09:38:28;5.13;;;3.28;;
76107;SDS011;64834;52.516;10.528;2022-12-07T09:40:54;5.30;;;3.42;;
76107;SDS011;64834;52.516;10.528;2022-12-07T09:43:20;3.58;;;2.47;;
76107;SDS011;64834;52.516;10.528;2022-12-07T09:45:48;8.98;;;3.40;;
76107;SDS011;64834;52.516;10.528;2022-12-07T09:48:19;3.50;;;2.25;;
76107;SDS011;64834;52.516;10.528;2022-12-07T09:50:47;4.65;;;1.80;;
76107;SDS011;64834;52.516;10.528;2022-12-07T09:53:20;4.97;;;1.95;;
76107;SDS011;64834;52.516;10.528;2022-12-07T09:55:50;3.83;;;2.53;;
76107;SDS011;64834;52.516;10.528;2022-12-07T09:58:24;4.45;;;3.10;;
76107;SDS011;64834;52.516;10.528;2022-12-07T10:03:32;9.73;;;2.58;;
76107;SDS011;64834;52.516;10.528;2022-12-07T10:05:57;4.50;;;2.67;;
76107;SDS011;64834;52.516;10.528;2022-12-07T10:08:24;3.47;;;2.25;;
76107;SDS011;64834;52.516;10.528;2022-12-07T10:10:54;6.25;;;2.13;;
76107;SDS011;64834;52.516;10.528;2022-12-07T10:14:10;3.75;;;2.08;;
76107;SDS011;64834;52.516;10.528;2022-12-07T10:16:35;7.75;;;3.58;;
76107;SDS011;64834;52.516;10.528;2022-12-07T10:19:20;8.43;;;3.53;;
76107;SDS011;64834;52.516;10.528;2022-12-07T10:22:03;3.95;;;2.30;;
76107;SDS011;64834;52.516;10.528;2022-12-07T10:24:29;6.60;;;2.22;;
76107;SDS011;64834;52.516;10.528;2022-12-07T10:26:54;2.83;;;1.75;;
76107;SDS011;64834;52.516;10.528;2022-12-07T10:29:21;2.28;;;1.33;;
76107;SDS011;64834;52.516;10.528;2022-12-07T10:32:03;8.48;;;3.50;;
76107;SDS011;64834;52.516;10.528;2022-12-07T10:34:36;4.50;;;2.63;;
76107;SDS011;64834;52.516;10.528;2022-12-07T10:39:40;2.83;;;2.30;;
76107;SDS011;64834;52.516;10.528;2022-12-07T10:42:19;7.82;;;2.85;;
76107;SDS011;64834;52.516;10.528;2022-12-07T10:44:45;4.47;;;2.30;;
76107;SDS011;64834;52.516;10.528;2022-12-07T10:47:14;6.60;;;2.78;;
76107;SDS011;64834;52.516;10.528;2022-12-07T10:49:54;4.20;;;2.45;;
76107;SDS011;64834;52.516;10.528;2022-12-07T10:52:53;3.65;;;2.08;;
76107;SDS011;64834;52.516;10.528;2022-12-07T10:55:48;2.30;;;1.35;;
76107;SDS011;64834;52.516;10.528;2022-12-07T10:58:24;4.45;;;2.88;;
76107;SDS011;64834;52.516;10.528;2022-12-07T11:12:20;3.85;;;2.17;;
76107;SDS011;64834;52.516;10.528;2022-12-07T11:23:18;4.22;;;1.95;;
76107;SDS011;64834;52.516;10.528;2022-12-07T11:26:19;1.65;;;1.52;;
76107;SDS011;64834;52.516;10.528;2022-12-07T11:28:57;4.50;;;1.95;;
76107;SDS011;64834;52.516;10.528;2022-12-07T11:31:59;5.75;;;1.88;;
76107;SDS011;64834;52.516;10.528;2022-12-07T11:37:31;4.05;;;1.58;;
76107;SDS011;64834;52.516;10.528;2022-12-07T11:42:53;2.65;;;1.70;;
76107;SDS011;64834;52.516;10.528;2022-12-07T11:45:23;2.35;;;1.48;;
76107;SDS011;64834;52.516;10.528;2022-12-07T11:51:06;2.53;;;1.83;;
76107;SDS011;64834;52.516;10.528;2022-12-07T11:53:36;2.10;;;1.30;;
76107;SDS011;64834;52.516;10.528;2022-12-07T12:01:31;2.60;;;1.25;;
76107;SDS011;64834;52.516;10.528;2022-12-07T12:04:07;2.25;;;1.23;;
76107;SDS011;64834;52.516;10.528;2022-12-07T12:06:47;2.22;;;1.45;;
76107;SDS011;64834;52.516;10.528;2022-12-07T12:09:20;3.63;;;1.50;;
76107;SDS011;64834;52.516;10.528;2022-12-07T12:12:06;3.03;;;1.70;;
76107;SDS011;64834;52.516;10.528;2022-12-07T12:14:48;2.25;;;2.03;;
76107;SDS011;64834;52.516;10.528;2022-12-07T12:17:29;9.07;;;4.38;;
76107;SDS011;64834;52.516;10.528;2022-12-07T12:23:09;3.33;;;1.67;;
76107;SDS011;64834;52.516;10.528;2022-12-07T12:28:22;6.63;;;2.03;;
76107;SDS011;64834;52.516;10.528;2022-12-07T12:31:05;2.78;;;1.63;;
76107;SDS011;64834;52.516;10.528;2022-12-07T12:33:33;2.92;;;2.03;;
76107;SDS011;64834;52.516;10.528;2022-12-07T12:50:12;3.08;;;1.10;;
76107;SDS011;64834;52.516;10.528;2022-12-07T12:57:33;1.50;;;0.90;;
76107;SDS011;64834;52.516;10.528;2022-12-07T13:00:18;3.08;;;1.65;;
76107;SDS011;64834;52.516;10.528;2022-12-07T13:10:24;0.95;;;0.70;;
76107;SDS011;64834;52.516;10.528;2022-12-07T13:18:00;1.80;;;0.40;;
76107;SDS011;64834;52.516;10.528;2022-12-07T13:20:44;1.98;;;1.08;;
76107;SDS011;64834;52.516;10.528;2022-12-07T13:23:12;0.75;;;0.32;;
76107;SDS011;64834;52.516;10.528;2022-12-07T13:25:45;2.15;;;0.60;;
76107;SDS011;64834;52.516;10.528;2022-12-07T13:28:19;3.88;;;1.13;;
76107;SDS011;64834;52.516;10.528;2022-12-07T13:30:58;1.00;;;0.52;;
76107;SDS011;64834;52.516;10.528;2022-12-07T13:33:29;2.17;;;1.08;;
76107;SDS011;64834;52.516;10.528;2022-12-07T13:35:55;2.60;;;1.33;;
76107;SDS011;64834;52.516;10.528;2022-12-07T13:41:01;1.15;;;0.82;;
76107;SDS011;64834;52.516;10.528;2022-12-07T13:43:28;2.67;;;1.38;;
76107;SDS011;64834;52.516;10.528;2022-12-07T13:45:57;2.08;;;1.40;;
76107;SDS011;64834;52.516;10.528;2022-12-07T13:48:27;5.18;;;1.60;;
76107;SDS011;64834;52.516;10.528;2022-12-07T13:50:58;2.40;;;1.35;;
76107;SDS011;64834;52.516;10.528;2022-12-07T13:53:25;3.90;;;1.52;;
76107;SDS011;64834;52.516;10.528;2022-12-07T13:55:56;3.40;;;1.48;;
76107;SDS011;64834;52.516;10.528;2022-12-07T13:58:23;4.15;;;1.40;;
76107;SDS011;64834;52.516;10.528;2022-12-07T14:00:49;3.35;;;1.40;;
76107;SDS011;64834;52.516;10.528;2022-12-07T14:05:41;2.73;;;0.90;;
76107;SDS011;64834;52.516;10.528;2022-12-07T14:10:37;3.63;;;1.83;;
76107;SDS011;64834;52.516;10.528;2022-12-07T14:13:04;5.45;;;1.25;;
76107;SDS011;64834;52.516;10.528;2022-12-07T14:15:53;0.52;;;0.20;;
76107;SDS011;64834;52.516;10.528;2022-12-07T14:18:29;2.60;;;0.50;;
76107;SDS011;64834;52.516;10.528;2022-12-07T14:23:36;0.73;;;0.40;;
76107;SDS011;64834;52.516;10.528;2022-12-07T14:28:38;3.22;;;0.43;;
76107;SDS011;64834;52.516;10.528;2022-12-07T14:31:08;0.93;;;0.30;;
76107;SDS011;64834;52.516;10.528;2022-12-07T14:33:37;1.40;;;0.35;;
76107;SDS011;64834;52.516;10.528;2022-12-07T14:36:03;1.15;;;0.32;;
76107;SDS011;64834;52.516;10.528;2022-12-07T14:38:28;1.23;;;0.40;;
76107;SDS011;64834;52.516;10.528;2022-12-07T14:40:54;5.13;;;0.95;;
76107;SDS011;64834;52.516;10.528;2022-12-07T14:43:40;3.05;;;0.88;;
76107;SDS011;64834;52.516;10.528;2022-12-07T14:46:05;2.10;;;0.80;;
76107;SDS011;64834;52.516;10.528;2022-12-07T14:48:30;3.88;;;0.80;;
76107;SDS011;64834;52.516;10.528;2022-12-07T14:50:56;1.58;;;0.80;;
76107;SDS011;64834;52.516;10.528;2022-12-07T14:53:22;3.55;;;0.73;;
76107;SDS011;64834;52.516;10.528;2022-12-07T14:55:53;4.22;;;0.60;;
76107;SDS011;64834;52.516;10.528;2022-12-07T14:58:19;10.43;;;1.42;;
76107;SDS011;64834;52.516;10.528;2022-12-07T15:00:45;1.48;;;0.55;;
76107;SDS011;64834;52.516;10.528;2022-12-07T15:03:12;2.22;;;0.63;;
76107;SDS011;64834;52.516;10.528;2022-12-07T15:05:38;3.40;;;0.70;;
76107;SDS011;64834;52.516;10.528;2022-12-07T15:08:04;4.30;;;0.65;;
76107;SDS011;64834;52.516;10.528;2022-12-07T15:10:31;2.58;;;0.40;;
76107;SDS011;64834;52.516;10.528;2022-12-07T15:15:44;3.15;;;0.80;;
76107;SDS011;64834;52.516;10.528;2022-12-07T15:18:09;2.15;;;0.82;;
76107;SDS011;64834;52.516;10.528;2022-12-07T15:20:35;3.15;;;0.52;;
76107;SDS011;64834;52.516;10.528;2022-12-07T15:23:00;1.58;;;0.40;;
76107;SDS011;64834;52.516;10.528;2022-12-07T15:25:25;19.52;;;8.50;;
76107;SDS011;64834;52.516;10.528;2022-12-07T15:27:51;7.03;;;2.60;;
76107;SDS011;64834;52.516;10.528;2022-12-07T15:30:16;3.45;;;1.83;;
76107;SDS011;64834;52.516;10.528;2022-12-07T15:32:41;2.40;;;1.40;;
76107;SDS011;64834;52.516;10.528;2022-12-07T15:35:07;3.97;;;2.40;;
76107;SDS011;64834;52.516;10.528;2022-12-07T15:37:32;2.80;;;1.20;;
76107;SDS011;64834;52.516;10.528;2022-12-07T15:39:58;3.15;;;1.33;;
76107;SDS011;64834;52.516;10.528;2022-12-07T15:42:23;2.70;;;1.17;;
76107;SDS011;64834;52.516;10.528;2022-12-07T15:44:48;1.77;;;0.93;;
76107;SDS011;64834;52.516;10.528;2022-12-07T15:47:30;2.17;;;0.90;;
76107;SDS011;64834;52.516;10.528;2022-12-07T15:49:56;3.58;;;2.03;;
76107;SDS011;64834;52.516;10.528;2022-12-07T15:52:21;1.92;;;1.05;;
76107;SDS011;64834;52.516;10.528;2022-12-07T15:54:46;1.80;;;1.30;;
76107;SDS011;64834;52.516;10.528;2022-12-07T15:57:12;1.98;;;0.88;;
76107;SDS011;64834;52.516;10.528;2022-12-07T15:59:38;3.28;;;1.50;;
76107;SDS011;64834;52.516;10.528;2022-12-07T16:02:03;3.47;;;1.95;;
76107;SDS011;64834;52.516;10.528;2022-12-07T16:04:28;6.53;;;2.17;;
76107;SDS011;64834;52.516;10.528;2022-12-07T16:06:54;4.10;;;1.70;;
76107;SDS011;64834;52.516;10.528;2022-12-07T16:09:20;4.63;;;2.15;;
76107;SDS011;64834;52.516;10.528;2022-12-07T16:11:46;6.70;;;2.10;;
76107;SDS011;64834;52.516;10.528;2022-12-07T16:14:11;3.13;;;1.67;;
76107;SDS011;64834;52.516;10.528;2022-12-07T16:16:37;3.78;;;1.88;;
76107;SDS011;64834;52.516;10.528;2022-12-07T16:19:02;5.40;;;1.90;;
76107;SDS011;64834;52.516;10.528;2022-12-07T16:21:27;3.60;;;1.83;;
76107;SDS011;64834;52.516;10.528;2022-12-07T16:23:53;5.95;;;1.95;;
76107;SDS011;64834;52.516;10.528;2022-12-07T16:26:19;3.72;;;2.15;;
76107;SDS011;64834;52.516;10.528;2022-12-07T16:28:48;4.18;;;2.40;;
76107;SDS011;64834;52.516;10.528;2022-12-07T16:31:14;4.75;;;2.05;;
76107;SDS011;64834;52.516;10.528;2022-12-07T16:33:42;3.97;;;1.60;;
76107;SDS011;64834;52.516;10.528;2022-12-07T16:36:10;3.15;;;1.80;;
76107;SDS011;64834;52.516;10.528;2022-12-07T16:38:37;3.78;;;2.22;;
76107;SDS011;64834;52.516;10.528;2022-12-07T16:41:03;5.50;;;1.38;;
76107;SDS011;64834;52.516;10.528;2022-12-07T16:43:30;8.05;;;2.05;;
76107;SDS011;64834;52.516;10.528;2022-12-07T16:45:55;2.38;;;1.95;;
76107;SDS011;64834;52.516;10.528;2022-12-07T16:48:20;7.22;;;2.28;;
76107;SDS011;64834;52.516;10.528;2022-12-07T16:50:45;5.40;;;2.53;;